Ziguinchor, Ziguinchor Airport (GOGG)

NameZiguinchor Airport
CityZiguinchor
CountrySenegal
ICAOGOGG
IATAZIG
Altitude7 m
CoordinatesGoogle Map
Live Air TrafficLiveATC.net
METARGOGG 201100Z 36006KT 8000 NSC 27/10 Q1013
2019-02-20 11:00:00 Wind: North (360°) 3.09 m/s - Visibility: 8000 m - Temperature: 27 °C - Dew point: 10 °C - Humidity: 34.4% - Pressure: 1013 hPa
Statistics

The table below shows the detailed information of all flights to/from Ziguinchor, Ziguinchor Airport (GOGG).